sensor_id;sensor_type;location;lat;lon;timestamp;temperature;humidity
7240;DHT22;3661;53.288;10.458;2022-09-27T00:00:10;14.70;99.90
7240;DHT22;3661;53.288;10.458;2022-09-27T00:02:43;14.50;99.90
7240;DHT22;3661;53.288;10.458;2022-09-27T00:05:17;14.40;99.90
7240;DHT22;3661;53.288;10.458;2022-09-27T00:07:49;14.30;99.90
7240;DHT22;3661;53.288;10.458;2022-09-27T00:10:22;14.30;99.90
7240;DHT22;3661;53.288;10.458;2022-09-27T00:12:55;14.20;99.90
7240;DHT22;3661;53.288;10.458;2022-09-27T00:15:27;14.10;99.90
7240;DHT22;3661;53.288;10.458;2022-09-27T00:17:59;14.00;99.90
7240;DHT22;3661;53.288;10.458;2022-09-27T00:20:33;13.90;99.90
7240;DHT22;3661;53.288;10.458;2022-09-27T00:23:05;13.80;99.90
7240;DHT22;3661;53.288;10.458;2022-09-27T00:25:38;13.70;99.90
7240;DHT22;3661;53.288;10.458;2022-09-27T00:28:10;13.70;99.90
7240;DHT22;3661;53.288;10.458;2022-09-27T00:30:43;13.60;99.90
7240;DHT22;3661;53.288;10.458;2022-09-27T00:33:15;13.50;99.90
7240;DHT22;3661;53.288;10.458;2022-09-27T00:35:49;13.50;99.90
7240;DHT22;3661;53.288;10.458;2022-09-27T00:38:21;13.40;99.90
7240;DHT22;3661;53.288;10.458;2022-09-27T00:40:53;13.30;99.90
7240;DHT22;3661;53.288;10.458;2022-09-27T00:43:25;13.30;99.90
7240;DHT22;3661;53.288;10.458;2022-09-27T00:45:59;13.20;99.90
7240;DHT22;3661;53.288;10.458;2022-09-27T00:48:35;13.20;99.90
7240;DHT22;3661;53.288;10.458;2022-09-27T00:51:09;13.10;99.90
7240;DHT22;3661;53.288;10.458;2022-09-27T00:53:48;13.10;99.90
7240;DHT22;3661;53.288;10.458;2022-09-27T00:56:25;13.00;99.90
7240;DHT22;3661;53.288;10.458;2022-09-27T00:59:05;13.00;99.90
7240;DHT22;3661;53.288;10.458;2022-09-27T01:01:38;12.90;99.90
7240;DHT22;3661;53.288;10.458;2022-09-27T01:04:12;12.90;99.90
7240;DHT22;3661;53.288;10.458;2022-09-27T01:06:47;12.80;99.90
7240;DHT22;3661;53.288;10.458;2022-09-27T01:09:20;12.80;99.90
7240;DHT22;3661;53.288;10.458;2022-09-27T01:12:01;12.70;99.90
7240;DHT22;3661;53.288;10.458;2022-09-27T01:14:42;12.70;99.90
7240;DHT22;3661;53.288;10.458;2022-09-27T01:17:31;12.70;99.90
7240;DHT22;3661;53.288;10.458;2022-09-27T01:20:32;12.60;99.90
7240;DHT22;3661;53.288;10.458;2022-09-27T01:23:28;12.60;99.90
7240;DHT22;3661;53.288;10.458;2022-09-27T01:26:12;12.50;99.90
7240;DHT22;3661;53.288;10.458;2022-09-27T01:28:56;12.50;99.90
7240;DHT22;3661;53.288;10.458;2022-09-27T01:31:40;12.50;99.90
7240;DHT22;3661;53.288;10.458;2022-09-27T01:34:21;12.50;99.90
7240;DHT22;3661;53.288;10.458;2022-09-27T01:37:02;12.40;99.90
7240;DHT22;3661;53.288;10.458;2022-09-27T01:39:47;12.40;99.90
7240;DHT22;3661;53.288;10.458;2022-09-27T01:42:25;12.30;99.90
7240;DHT22;3661;53.288;10.458;2022-09-27T01:45:03;12.30;99.90
7240;DHT22;3661;53.288;10.458;2022-09-27T01:47:41;12.20;99.90
7240;DHT22;3661;53.288;10.458;2022-09-27T01:50:17;12.20;99.90
7240;DHT22;3661;53.288;10.458;2022-09-27T01:52:54;12.20;99.90
7240;DHT22;3661;53.288;10.458;2022-09-27T01:55:30;12.10;99.90
7240;DHT22;3661;53.288;10.458;2022-09-27T01:58:07;12.10;99.90
7240;DHT22;3661;53.288;10.458;2022-09-27T02:00:43;12.10;99.90
7240;DHT22;3661;53.288;10.458;2022-09-27T02:03:20;12.10;99.90
7240;DHT22;3661;53.288;10.458;2022-09-27T02:05:57;12.00;99.90
7240;DHT22;3661;53.288;10.458;2022-09-27T02:08:37;12.00;99.90
7240;DHT22;3661;53.288;10.458;2022-09-27T02:11:13;12.00;99.90
7240;DHT22;3661;53.288;10.458;2022-09-27T02:13:49;11.90;99.90
7240;DHT22;3661;53.288;10.458;2022-09-27T02:16:29;11.90;99.90
7240;DHT22;3661;53.288;10.458;2022-09-27T02:19:09;11.90;99.90
7240;DHT22;3661;53.288;10.458;2022-09-27T02:21:48;11.80;99.90
7240;DHT22;3661;53.288;10.458;2022-09-27T02:24:31;11.80;99.90
7240;DHT22;3661;53.288;10.458;2022-09-27T02:27:11;11.80;99.90
7240;DHT22;3661;53.288;10.458;2022-09-27T02:29:49;11.70;99.90
7240;DHT22;3661;53.288;10.458;2022-09-27T02:32:23;11.70;99.90
7240;DHT22;3661;53.288;10.458;2022-09-27T02:35:00;11.70;99.90
7240;DHT22;3661;53.288;10.458;2022-09-27T02:37:34;11.70;99.90
7240;DHT22;3661;53.288;10.458;2022-09-27T02:40:06;11.60;99.90
7240;DHT22;3661;53.288;10.458;2022-09-27T02:42:39;11.60;99.90
7240;DHT22;3661;53.288;10.458;2022-09-27T02:45:15;11.60;99.90
7240;DHT22;3661;53.288;10.458;2022-09-27T02:47:58;11.60;99.90
7240;DHT22;3661;53.288;10.458;2022-09-27T02:51:04;11.50;99.90
7240;DHT22;3661;53.288;10.458;2022-09-27T02:53:52;11.60;99.90
7240;DHT22;3661;53.288;10.458;2022-09-27T02:56:35;11.50;99.90
7240;DHT22;3661;53.288;10.458;2022-09-27T02:59:21;11.50;99.90
7240;DHT22;3661;53.288;10.458;2022-09-27T03:02:03;11.50;99.90
7240;DHT22;3661;53.288;10.458;2022-09-27T03:04:40;11.50;99.90
7240;DHT22;3661;53.288;10.458;2022-09-27T03:07:16;11.40;99.90
7240;DHT22;3661;53.288;10.458;2022-09-27T03:09:51;11.40;99.90
7240;DHT22;3661;53.288;10.458;2022-09-27T03:12:24;11.40;99.90
7240;DHT22;3661;53.288;10.458;2022-09-27T03:14:58;11.40;99.90
7240;DHT22;3661;53.288;10.458;2022-09-27T03:17:30;11.40;99.90
7240;DHT22;3661;53.288;10.458;2022-09-27T03:20:03;11.30;99.90
7240;DHT22;3661;53.288;10.458;2022-09-27T03:22:36;11.40;99.90
7240;DHT22;3661;53.288;10.458;2022-09-27T03:25:10;11.40;99.90
7240;DHT22;3661;53.288;10.458;2022-09-27T03:27:44;11.30;99.90
7240;DHT22;3661;53.288;10.458;2022-09-27T03:30:16;11.30;99.90
7240;DHT22;3661;53.288;10.458;2022-09-27T03:32:48;11.30;99.90
7240;DHT22;3661;53.288;10.458;2022-09-27T03:35:20;11.30;99.90
7240;DHT22;3661;53.288;10.458;2022-09-27T03:37:54;11.30;99.90
7240;DHT22;3661;53.288;10.458;2022-09-27T03:40:27;11.30;99.90
7240;DHT22;3661;53.288;10.458;2022-09-27T03:43:00;11.20;99.90
7240;DHT22;3661;53.288;10.458;2022-09-27T03:45:33;11.20;99.90
7240;DHT22;3661;53.288;10.458;2022-09-27T03:48:06;11.30;99.90
7240;DHT22;3661;53.288;10.458;2022-09-27T03:50:38;11.20;99.90
7240;DHT22;3661;53.288;10.458;2022-09-27T03:53:12;11.20;99.90
7240;DHT22;3661;53.288;10.458;2022-09-27T03:55:44;11.20;99.90
7240;DHT22;3661;53.288;10.458;2022-09-27T03:58:17;11.20;99.90
7240;DHT22;3661;53.288;10.458;2022-09-27T04:00:50;11.20;99.90
7240;DHT22;3661;53.288;10.458;2022-09-27T04:03:22;11.20;99.90
7240;DHT22;3661;53.288;10.458;2022-09-27T04:05:55;11.20;99.90
7240;DHT22;3661;53.288;10.458;2022-09-27T04:08:32;11.20;99.90
7240;DHT22;3661;53.288;10.458;2022-09-27T04:11:05;11.10;99.90
7240;DHT22;3661;53.288;10.458;2022-09-27T04:13:37;11.10;99.90
7240;DHT22;3661;53.288;10.458;2022-09-27T04:16:09;11.10;99.90
7240;DHT22;3661;53.288;10.458;2022-09-27T04:18:41;11.10;99.90
7240;DHT22;3661;53.288;10.458;2022-09-27T04:21:13;11.10;99.90
7240;DHT22;3661;53.288;10.458;2022-09-27T04:23:48;11.10;99.90
7240;DHT22;3661;53.288;10.458;2022-09-27T04:26:22;11.10;99.90
7240;DHT22;3661;53.288;10.458;2022-09-27T04:28:55;11.10;99.90
7240;DHT22;3661;53.288;10.458;2022-09-27T04:31:27;11.10;99.90
7240;DHT22;3661;53.288;10.458;2022-09-27T04:33:59;11.10;99.90
7240;DHT22;3661;53.288;10.458;2022-09-27T04:36:32;11.10;99.90
7240;DHT22;3661;53.288;10.458;2022-09-27T04:39:06;11.10;99.90
7240;DHT22;3661;53.288;10.458;2022-09-27T04:41:38;11.00;99.90
7240;DHT22;3661;53.288;10.458;2022-09-27T04:44:11;11.10;99.90
7240;DHT22;3661;53.288;10.458;2022-09-27T04:46:43;11.00;99.90
7240;DHT22;3661;53.288;10.458;2022-09-27T04:49:15;11.00;99.90
7240;DHT22;3661;53.288;10.458;2022-09-27T04:51:47;11.00;99.90
7240;DHT22;3661;53.288;10.458;2022-09-27T04:54:21;11.00;99.90
7240;DHT22;3661;53.288;10.458;2022-09-27T04:56:53;11.10;99.90
7240;DHT22;3661;53.288;10.458;2022-09-27T04:59:25;11.00;99.90
7240;DHT22;3661;53.288;10.458;2022-09-27T05:01:57;11.00;99.90
7240;DHT22;3661;53.288;10.458;2022-09-27T05:04:30;11.00;99.90
7240;DHT22;3661;53.288;10.458;2022-09-27T05:07:02;11.00;99.90
7240;DHT22;3661;53.288;10.458;2022-09-27T05:09:36;11.00;99.90
7240;DHT22;3661;53.288;10.458;2022-09-27T05:12:08;11.00;99.90
7240;DHT22;3661;53.288;10.458;2022-09-27T05:14:40;11.00;99.90
7240;DHT22;3661;53.288;10.458;2022-09-27T05:17:13;11.00;99.90
7240;DHT22;3661;53.288;10.458;2022-09-27T05:19:45;11.00;99.90
7240;DHT22;3661;53.288;10.458;2022-09-27T05:22:18;11.00;99.90
7240;DHT22;3661;53.288;10.458;2022-09-27T05:24:51;11.00;99.90
7240;DHT22;3661;53.288;10.458;2022-09-27T05:27:23;11.00;99.90
7240;DHT22;3661;53.288;10.458;2022-09-27T05:29:56;11.00;99.90
7240;DHT22;3661;53.288;10.458;2022-09-27T05:32:31;10.90;99.90
7240;DHT22;3661;53.288;10.458;2022-09-27T05:35:05;10.90;99.90
7240;DHT22;3661;53.288;10.458;2022-09-27T05:37:37;10.90;99.90
7240;DHT22;3661;53.288;10.458;2022-09-27T05:40:11;10.90;99.90
7240;DHT22;3661;53.288;10.458;2022-09-27T05:42:44;10.90;99.90
7240;DHT22;3661;53.288;10.458;2022-09-27T05:45:18;10.90;99.90
7240;DHT22;3661;53.288;10.458;2022-09-27T05:47:54;10.90;99.90
7240;DHT22;3661;53.288;10.458;2022-09-27T05:50:27;10.90;99.90
7240;DHT22;3661;53.288;10.458;2022-09-27T05:52:59;10.90;99.90
7240;DHT22;3661;53.288;10.458;2022-09-27T05:55:35;10.90;99.90
7240;DHT22;3661;53.288;10.458;2022-09-27T05:58:09;10.90;99.90
7240;DHT22;3661;53.288;10.458;2022-09-27T06:00:45;10.90;99.90
7240;DHT22;3661;53.288;10.458;2022-09-27T06:03:18;10.90;99.90
7240;DHT22;3661;53.288;10.458;2022-09-27T06:05:50;10.90;99.90
7240;DHT22;3661;53.288;10.458;2022-09-27T06:08:22;10.90;99.90
7240;DHT22;3661;53.288;10.458;2022-09-27T06:11:02;10.90;99.90
7240;DHT22;3661;53.288;10.458;2022-09-27T06:13:58;10.90;99.90
7240;DHT22;3661;53.288;10.458;2022-09-27T06:16:44;10.90;99.90
7240;DHT22;3661;53.288;10.458;2022-09-27T06:19:16;10.90;99.90
7240;DHT22;3661;53.288;10.458;2022-09-27T06:21:48;10.90;99.90
7240;DHT22;3661;53.288;10.458;2022-09-27T06:24:21;11.00;99.90
7240;DHT22;3661;53.288;10.458;2022-09-27T06:26:55;11.00;99.90
7240;DHT22;3661;53.288;10.458;2022-09-27T06:29:27;11.00;99.90
7240;DHT22;3661;53.288;10.458;2022-09-27T06:31:59;11.00;99.90
7240;DHT22;3661;53.288;10.458;2022-09-27T06:34:31;11.00;99.90
7240;DHT22;3661;53.288;10.458;2022-09-27T06:37:03;11.00;99.90
7240;DHT22;3661;53.288;10.458;2022-09-27T06:39:36;11.00;99.90
7240;DHT22;3661;53.288;10.458;2022-09-27T06:42:10;11.00;99.90
7240;DHT22;3661;53.288;10.458;2022-09-27T06:44:42;11.00;99.90
7240;DHT22;3661;53.288;10.458;2022-09-27T06:47:14;11.00;99.90
7240;DHT22;3661;53.288;10.458;2022-09-27T06:49:46;11.00;99.90
7240;DHT22;3661;53.288;10.458;2022-09-27T06:52:19;11.00;99.90
7240;DHT22;3661;53.288;10.458;2022-09-27T06:54:51;11.10;99.90
7240;DHT22;3661;53.288;10.458;2022-09-27T06:57:24;11.10;99.90
7240;DHT22;3661;53.288;10.458;2022-09-27T07:00:11;11.10;99.90
7240;DHT22;3661;53.288;10.458;2022-09-27T07:02:57;11.10;99.90
7240;DHT22;3661;53.288;10.458;2022-09-27T07:05:31;11.10;99.90
7240;DHT22;3661;53.288;10.458;2022-09-27T07:08:04;11.10;99.90
7240;DHT22;3661;53.288;10.458;2022-09-27T07:10:36;11.10;99.90
7240;DHT22;3661;53.288;10.458;2022-09-27T07:13:10;11.10;99.90
7240;DHT22;3661;53.288;10.458;2022-09-27T07:15:42;11.20;99.90
7240;DHT22;3661;53.288;10.458;2022-09-27T07:18:14;11.20;99.90
7240;DHT22;3661;53.288;10.458;2022-09-27T07:20:47;11.20;99.90
7240;DHT22;3661;53.288;10.458;2022-09-27T07:23:19;11.20;99.90
7240;DHT22;3661;53.288;10.458;2022-09-27T07:25:51;11.20;99.90
7240;DHT22;3661;53.288;10.458;2022-09-27T07:28:25;11.20;99.90
7240;DHT22;3661;53.288;10.458;2022-09-27T07:30:57;11.20;99.90
7240;DHT22;3661;53.288;10.458;2022-09-27T07:33:30;11.20;99.90
7240;DHT22;3661;53.288;10.458;2022-09-27T07:36:08;11.20;99.90
7240;DHT22;3661;53.288;10.458;2022-09-27T07:38:40;11.30;99.90
7240;DHT22;3661;53.288;10.458;2022-09-27T07:41:13;11.30;99.90
7240;DHT22;3661;53.288;10.458;2022-09-27T07:43:46;11.30;99.90
7240;DHT22;3661;53.288;10.458;2022-09-27T07:46:19;11.40;99.90
7240;DHT22;3661;53.288;10.458;2022-09-27T07:48:51;11.40;99.90
7240;DHT22;3661;53.288;10.458;2022-09-27T07:51:23;11.40;99.90
7240;DHT22;3661;53.288;10.458;2022-09-27T07:53:55;11.50;99.90
7240;DHT22;3661;53.288;10.458;2022-09-27T07:56:27;11.60;99.90
7240;DHT22;3661;53.288;10.458;2022-09-27T07:59:01;11.60;99.90
7240;DHT22;3661;53.288;10.458;2022-09-27T08:01:33;11.70;99.90
7240;DHT22;3661;53.288;10.458;2022-09-27T08:04:05;11.70;99.90
7240;DHT22;3661;53.288;10.458;2022-09-27T08:06:38;11.80;99.90
7240;DHT22;3661;53.288;10.458;2022-09-27T08:09:10;11.80;99.90
7240;DHT22;3661;53.288;10.458;2022-09-27T08:11:42;11.80;99.90
7240;DHT22;3661;53.288;10.458;2022-09-27T08:14:15;11.90;99.90
7240;DHT22;3661;53.288;10.458;2022-09-27T08:16:48;11.90;99.90
7240;DHT22;3661;53.288;10.458;2022-09-27T08:19:21;11.90;99.90
7240;DHT22;3661;53.288;10.458;2022-09-27T08:21:53;11.90;99.90
7240;DHT22;3661;53.288;10.458;2022-09-27T08:24:25;11.90;99.90
7240;DHT22;3661;53.288;10.458;2022-09-27T08:26:58;12.00;99.90
7240;DHT22;3661;53.288;10.458;2022-09-27T08:29:32;12.00;99.90
7240;DHT22;3661;53.288;10.458;2022-09-27T08:32:04;12.00;99.90
7240;DHT22;3661;53.288;10.458;2022-09-27T08:34:36;12.00;99.90
7240;DHT22;3661;53.288;10.458;2022-09-27T08:37:08;12.00;99.90
7240;DHT22;3661;53.288;10.458;2022-09-27T08:39:40;12.00;99.90
7240;DHT22;3661;53.288;10.458;2022-09-27T08:42:18;12.00;99.90
7240;DHT22;3661;53.288;10.458;2022-09-27T08:45:06;12.00;99.90
7240;DHT22;3661;53.288;10.458;2022-09-27T08:47:41;12.00;99.90
7240;DHT22;3661;53.288;10.458;2022-09-27T08:50:23;12.10;99.90
7240;DHT22;3661;53.288;10.458;2022-09-27T08:53:00;12.10;99.90
7240;DHT22;3661;53.288;10.458;2022-09-27T08:55:36;12.00;99.90
7240;DHT22;3661;53.288;10.458;2022-09-27T08:58:14;12.00;99.90
7240;DHT22;3661;53.288;10.458;2022-09-27T09:00:51;12.00;99.90
7240;DHT22;3661;53.288;10.458;2022-09-27T09:03:27;12.00;99.90
7240;DHT22;3661;53.288;10.458;2022-09-27T09:06:07;12.00;99.90
7240;DHT22;3661;53.288;10.458;2022-09-27T09:08:51;12.00;99.90
7240;DHT22;3661;53.288;10.458;2022-09-27T09:11:37;12.00;99.90
7240;DHT22;3661;53.288;10.458;2022-09-27T09:17:45;12.10;99.90
7240;DHT22;3661;53.288;10.458;2022-09-27T09:20:28;12.10;99.90
7240;DHT22;3661;53.288;10.458;2022-09-27T09:23:41;12.10;99.90
7240;DHT22;3661;53.288;10.458;2022-09-27T09:26:26;12.10;99.90
7240;DHT22;3661;53.288;10.458;2022-09-27T09:29:18;12.10;99.90
7240;DHT22;3661;53.288;10.458;2022-09-27T09:31:56;12.10;99.90
7240;DHT22;3661;53.288;10.458;2022-09-27T09:34:33;12.20;99.90
7240;DHT22;3661;53.288;10.458;2022-09-27T09:37:13;12.20;99.90
7240;DHT22;3661;53.288;10.458;2022-09-27T09:39:50;12.20;99.90
7240;DHT22;3661;53.288;10.458;2022-09-27T09:42:25;12.30;99.90
7240;DHT22;3661;53.288;10.458;2022-09-27T09:45:02;12.30;99.90
7240;DHT22;3661;53.288;10.458;2022-09-27T09:47:39;12.30;99.90
7240;DHT22;3661;53.288;10.458;2022-09-27T09:50:16;12.20;99.90
7240;DHT22;3661;53.288;10.458;2022-09-27T09:52:52;12.20;99.90
7240;DHT22;3661;53.288;10.458;2022-09-27T09:55:28;12.20;99.90
7240;DHT22;3661;53.288;10.458;2022-09-27T09:58:09;12.20;99.90
7240;DHT22;3661;53.288;10.458;2022-09-27T10:00:45;12.20;99.90
7240;DHT22;3661;53.288;10.458;2022-09-27T10:03:18;12.20;99.90
7240;DHT22;3661;53.288;10.458;2022-09-27T10:05:52;12.30;99.90
7240;DHT22;3661;53.288;10.458;2022-09-27T10:08:24;12.30;99.90
7240;DHT22;3661;53.288;10.458;2022-09-27T10:10:56;12.20;99.90
7240;DHT22;3661;53.288;10.458;2022-09-27T10:13:30;12.30;99.90
7240;DHT22;3661;53.288;10.458;2022-09-27T10:16:07;12.30;99.90
7240;DHT22;3661;53.288;10.458;2022-09-27T10:18:41;12.30;99.90
7240;DHT22;3661;53.288;10.458;2022-09-27T10:21:19;12.40;99.90
7240;DHT22;3661;53.288;10.458;2022-09-27T13:01:58;12.50;99.90
7240;DHT22;3661;53.288;10.458;2022-09-27T13:04:49;12.40;99.90
7240;DHT22;3661;53.288;10.458;2022-09-27T13:07:34;12.50;99.90
7240;DHT22;3661;53.288;10.458;2022-09-27T13:13:21;12.50;99.90
7240;DHT22;3661;53.288;10.458;2022-09-27T13:15:57;12.60;99.90
7240;DHT22;3661;53.288;10.458;2022-09-27T13:18:49;12.60;99.90
7240;DHT22;3661;53.288;10.458;2022-09-27T13:21:54;12.60;99.90
7240;DHT22;3661;53.288;10.458;2022-09-27T13:24:48;12.60;99.90
7240;DHT22;3661;53.288;10.458;2022-09-27T13:27:42;12.70;99.90
7240;DHT22;3661;53.288;10.458;2022-09-27T13:30:46;12.80;99.90
7240;DHT22;3661;53.288;10.458;2022-09-27T13:36:27;12.80;99.90
7240;DHT22;3661;53.288;10.458;2022-09-27T13:39:18;12.90;99.90
7240;DHT22;3661;53.288;10.458;2022-09-27T13:42:05;12.90;99.90
7240;DHT22;3661;53.288;10.458;2022-09-27T13:44:49;12.90;99.90
7240;DHT22;3661;53.288;10.458;2022-09-27T13:47:26;12.90;99.90
7240;DHT22;3661;53.288;10.458;2022-09-27T13:50:13;12.90;99.90
7240;DHT22;3661;53.288;10.458;2022-09-27T13:52:58;12.90;99.90
7240;DHT22;3661;53.288;10.458;2022-09-27T13:55:41;12.90;99.90
7240;DHT22;3661;53.288;10.458;2022-09-27T13:58:33;12.80;99.90
7240;DHT22;3661;53.288;10.458;2022-09-27T14:01:13;12.80;99.90
7240;DHT22;3661;53.288;10.458;2022-09-27T14:03:51;12.80;99.90
7240;DHT22;3661;53.288;10.458;2022-09-27T14:06:28;12.70;99.90
7240;DHT22;3661;53.288;10.458;2022-09-27T14:09:04;12.70;99.90
7240;DHT22;3661;53.288;10.458;2022-09-27T14:11:39;12.60;99.90
7240;DHT22;3661;53.288;10.458;2022-09-27T14:14:15;12.60;99.90
7240;DHT22;3661;53.288;10.458;2022-09-27T14:16:48;12.60;99.90
7240;DHT22;3661;53.288;10.458;2022-09-27T14:19:24;12.50;99.90
7240;DHT22;3661;53.288;10.458;2022-09-27T14:21:57;12.50;99.90
7240;DHT22;3661;53.288;10.458;2022-09-27T14:24:42;12.50;99.90
7240;DHT22;3661;53.288;10.458;2022-09-27T14:27:17;12.50;99.90
7240;DHT22;3661;53.288;10.458;2022-09-27T14:29:51;12.40;99.90
7240;DHT22;3661;53.288;10.458;2022-09-27T14:32:26;12.40;99.90
7240;DHT22;3661;53.288;10.458;2022-09-27T14:35:04;12.40;99.90
7240;DHT22;3661;53.288;10.458;2022-09-27T14:37:37;12.30;99.90
7240;DHT22;3661;53.288;10.458;2022-09-27T14:40:19;12.30;99.90
7240;DHT22;3661;53.288;10.458;2022-09-27T14:42:53;12.30;99.90
7240;DHT22;3661;53.288;10.458;2022-09-27T14:45:27;12.30;99.90
7240;DHT22;3661;53.288;10.458;2022-09-27T14:48:02;12.20;99.90
7240;DHT22;3661;53.288;10.458;2022-09-27T14:50:57;12.20;99.90
7240;DHT22;3661;53.288;10.458;2022-09-27T14:53:33;12.20;99.90
7240;DHT22;3661;53.288;10.458;2022-09-27T14:56:11;12.20;99.90
7240;DHT22;3661;53.288;10.458;2022-09-27T14:58:49;12.10;99.90
7240;DHT22;3661;53.288;10.458;2022-09-27T15:01:23;12.10;99.90
7240;DHT22;3661;53.288;10.458;2022-09-27T15:04:01;12.10;99.90
7240;DHT22;3661;53.288;10.458;2022-09-27T15:06:35;12.10;99.90
7240;DHT22;3661;53.288;10.458;2022-09-27T15:09:11;12.10;99.90
7240;DHT22;3661;53.288;10.458;2022-09-27T15:11:48;12.10;99.90
7240;DHT22;3661;53.288;10.458;2022-09-27T15:14:24;12.10;99.90
7240;DHT22;3661;53.288;10.458;2022-09-27T15:16:58;12.00;99.90
7240;DHT22;3661;53.288;10.458;2022-09-27T15:19:35;12.00;99.90
7240;DHT22;3661;53.288;10.458;2022-09-27T15:22:22;12.00;99.90
7240;DHT22;3661;53.288;10.458;2022-09-27T15:25:10;12.00;99.90
7240;DHT22;3661;53.288;10.458;2022-09-27T15:27:50;12.00;99.90
7240;DHT22;3661;53.288;10.458;2022-09-27T15:30:25;12.00;99.90
7240;DHT22;3661;53.288;10.458;2022-09-27T15:32:58;12.00;99.90
7240;DHT22;3661;53.288;10.458;2022-09-27T15:35:34;11.90;99.90
7240;DHT22;3661;53.288;10.458;2022-09-27T15:38:12;11.90;99.90
7240;DHT22;3661;53.288;10.458;2022-09-27T15:41:08;11.90;99.90
7240;DHT22;3661;53.288;10.458;2022-09-27T15:43:44;11.90;99.90
7240;DHT22;3661;53.288;10.458;2022-09-27T15:46:34;11.80;99.90
7240;DHT22;3661;53.288;10.458;2022-09-27T15:49:27;11.80;99.90
7240;DHT22;3661;53.288;10.458;2022-09-27T15:52:03;11.80;99.90
7240;DHT22;3661;53.288;10.458;2022-09-27T15:54:39;11.80;99.90
7240;DHT22;3661;53.288;10.458;2022-09-27T15:57:11;11.80;99.90
7240;DHT22;3661;53.288;10.458;2022-09-27T15:59:45;11.70;99.90
7240;DHT22;3661;53.288;10.458;2022-09-27T16:02:20;11.70;99.90
7240;DHT22;3661;53.288;10.458;2022-09-27T16:04:52;11.70;99.90
7240;DHT22;3661;53.288;10.458;2022-09-27T16:07:24;11.70;99.90
7240;DHT22;3661;53.288;10.458;2022-09-27T16:09:56;11.70;99.90
7240;DHT22;3661;53.288;10.458;2022-09-27T16:12:28;11.70;99.90
7240;DHT22;3661;53.288;10.458;2022-09-27T16:15:04;11.60;99.90
7240;DHT22;3661;53.288;10.458;2022-09-27T16:17:36;11.60;99.90
7240;DHT22;3661;53.288;10.458;2022-09-27T16:20:15;11.60;99.90
7240;DHT22;3661;53.288;10.458;2022-09-27T16:22:49;11.60;99.90
7240;DHT22;3661;53.288;10.458;2022-09-27T16:25:21;11.60;99.90
7240;DHT22;3661;53.288;10.458;2022-09-27T16:27:56;11.50;99.90
7240;DHT22;3661;53.288;10.458;2022-09-27T16:30:31;11.50;99.90
7240;DHT22;3661;53.288;10.458;2022-09-27T16:33:03;11.50;99.90
7240;DHT22;3661;53.288;10.458;2022-09-27T16:35:38;11.50;99.90
7240;DHT22;3661;53.288;10.458;2022-09-27T16:38:12;11.50;99.90
7240;DHT22;3661;53.288;10.458;2022-09-27T16:40:44;11.40;99.90
7240;DHT22;3661;53.288;10.458;2022-09-27T16:43:18;11.40;99.90
7240;DHT22;3661;53.288;10.458;2022-09-27T16:46:03;11.40;99.90
7240;DHT22;3661;53.288;10.458;2022-09-27T16:48:35;11.40;99.90
7240;DHT22;3661;53.288;10.458;2022-09-27T16:51:14;11.30;99.90
7240;DHT22;3661;53.288;10.458;2022-09-27T16:54:09;11.30;99.90
7240;DHT22;3661;53.288;10.458;2022-09-27T16:57:21;11.30;99.90
7240;DHT22;3661;53.288;10.458;2022-09-27T17:06:02;11.30;99.90
7240;DHT22;3661;53.288;10.458;2022-09-27T17:08:49;11.20;99.90
7240;DHT22;3661;53.288;10.458;2022-09-27T17:11:34;11.20;99.90
7240;DHT22;3661;53.288;10.458;2022-09-27T17:14:07;11.20;99.90
7240;DHT22;3661;53.288;10.458;2022-09-27T17:19:31;11.20;99.90
7240;DHT22;3661;53.288;10.458;2022-09-27T17:22:05;11.10;99.90
7240;DHT22;3661;53.288;10.458;2022-09-27T17:24:38;11.10;99.90
7240;DHT22;3661;53.288;10.458;2022-09-27T17:27:10;11.10;99.90
7240;DHT22;3661;53.288;10.458;2022-09-27T17:29:43;11.10;99.90
7240;DHT22;3661;53.288;10.458;2022-09-27T17:32:15;11.00;99.90
7240;DHT22;3661;53.288;10.458;2022-09-27T17:34:48;11.00;99.90
7240;DHT22;3661;53.288;10.458;2022-09-27T17:37:22;11.00;99.90
7240;DHT22;3661;53.288;10.458;2022-09-27T17:39:54;11.00;99.90
7240;DHT22;3661;53.288;10.458;2022-09-27T17:42:27;11.00;99.90
7240;DHT22;3661;53.288;10.458;2022-09-27T17:44:59;11.00;99.90
7240;DHT22;3661;53.288;10.458;2022-09-27T17:47:31;10.90;99.90
7240;DHT22;3661;53.288;10.458;2022-09-27T17:50:20;10.90;99.90
7240;DHT22;3661;53.288;10.458;2022-09-27T17:52:58;10.90;99.90
7240;DHT22;3661;53.288;10.458;2022-09-27T17:55:30;10.90;99.90
7240;DHT22;3661;53.288;10.458;2022-09-27T17:58:02;10.90;99.90
7240;DHT22;3661;53.288;10.458;2022-09-27T18:00:35;10.80;99.90
7240;DHT22;3661;53.288;10.458;2022-09-27T18:03:09;10.80;99.90
7240;DHT22;3661;53.288;10.458;2022-09-27T18:05:41;10.80;99.90
7240;DHT22;3661;53.288;10.458;2022-09-27T18:08:16;10.80;99.90
7240;DHT22;3661;53.288;10.458;2022-09-27T18:10:48;10.80;99.90
7240;DHT22;3661;53.288;10.458;2022-09-27T18:13:21;10.70;99.90
7240;DHT22;3661;53.288;10.458;2022-09-27T18:15:56;10.70;99.90
7240;DHT22;3661;53.288;10.458;2022-09-27T18:18:29;10.70;99.90
7240;DHT22;3661;53.288;10.458;2022-09-27T18:21:02;10.60;99.90
7240;DHT22;3661;53.288;10.458;2022-09-27T18:23:35;10.60;99.90
7240;DHT22;3661;53.288;10.458;2022-09-27T18:26:08;10.60;99.90
7240;DHT22;3661;53.288;10.458;2022-09-27T18:28:41;10.50;99.90
7240;DHT22;3661;53.288;10.458;2022-09-27T18:31:15;10.50;99.90
7240;DHT22;3661;53.288;10.458;2022-09-27T18:33:48;10.50;99.90
7240;DHT22;3661;53.288;10.458;2022-09-27T18:36:21;10.50;99.90
7240;DHT22;3661;53.288;10.458;2022-09-27T18:38:57;10.50;99.90
7240;DHT22;3661;53.288;10.458;2022-09-27T18:41:31;10.40;99.90
7240;DHT22;3661;53.288;10.458;2022-09-27T18:44:04;10.40;99.90
7240;DHT22;3661;53.288;10.458;2022-09-27T18:46:36;10.40;99.90
7240;DHT22;3661;53.288;10.458;2022-09-27T18:49:10;10.30;99.90
7240;DHT22;3661;53.288;10.458;2022-09-27T18:51:43;10.30;99.90
7240;DHT22;3661;53.288;10.458;2022-09-27T18:54:20;10.30;99.90
7240;DHT22;3661;53.288;10.458;2022-09-27T18:56:53;10.20;99.90
7240;DHT22;3661;53.288;10.458;2022-09-27T18:59:25;10.20;99.90
7240;DHT22;3661;53.288;10.458;2022-09-27T19:01:59;10.20;99.90
7240;DHT22;3661;53.288;10.458;2022-09-27T19:04:31;10.20;99.90
7240;DHT22;3661;53.288;10.458;2022-09-27T19:07:03;10.10;99.90
7240;DHT22;3661;53.288;10.458;2022-09-27T19:09:39;10.10;99.90
7240;DHT22;3661;53.288;10.458;2022-09-27T19:12:11;10.10;99.90
7240;DHT22;3661;53.288;10.458;2022-09-27T19:14:43;10.10;99.90
7240;DHT22;3661;53.288;10.458;2022-09-27T19:17:15;10.00;99.90
7240;DHT22;3661;53.288;10.458;2022-09-27T19:19:47;10.00;99.90
7240;DHT22;3661;53.288;10.458;2022-09-27T19:22:20;10.00;99.90
7240;DHT22;3661;53.288;10.458;2022-09-27T19:24:54;10.00;99.90
7240;DHT22;3661;53.288;10.458;2022-09-27T19:27:27;10.00;99.90
7240;DHT22;3661;53.288;10.458;2022-09-27T19:30:00;9.90;99.90
7240;DHT22;3661;53.288;10.458;2022-09-27T19:32:32;9.90;99.90
7240;DHT22;3661;53.288;10.458;2022-09-27T19:35:05;9.90;99.90
7240;DHT22;3661;53.288;10.458;2022-09-27T19:37:38;9.90;99.90
7240;DHT22;3661;53.288;10.458;2022-09-27T19:40:12;9.80;99.90